Time;durP1;ratioP1;P1;durP2;ratioP2;P2;SDS_P1;SDS_P2;PMS_P1;PMS_P2;Temp;Humidity;BMP_temperature;BMP_pressure;BME280_temperature;BME280_humidity;BME280_pressure;Samples;Min_cycle;Max_cycle;Signal;HPM_P1;HPM_P2
2023/10/07 00:01:57;;;;;;;7.68;4.05;;;;;;;15.60;54.20;95532.47;4207567;28;20048;-70
2023/10/07 00:03:59;;;;;;;8.70;3.83;;;;;;;15.61;54.30;95531.47;4224311;28;20050;-71
2023/10/07 00:06:01;;;;;;;7.95;4.18;;;;;;;15.61;54.15;95529.66;4226950;28;20123;-69
2023/10/07 00:08:04;;;;;;;6.63;3.55;;;;;;;15.63;54.23;95524.22;4183149;28;20052;-70
2023/10/07 00:10:07;;;;;;;9.75;4.28;;;;;;;15.64;54.16;95524.03;4210589;28;20487;-72
2023/10/07 00:12:13;;;;;;;7.45;3.85;;;;;;;15.65;54.03;95522.22;4227779;28;20188;-70
2023/10/07 00:14:15;;;;;;;7.35;4.53;;;;;;;15.67;54.01;95518.41;4224611;28;20055;-71
2023/10/07 00:16:18;;;;;;;7.85;4.18;;;;;;;15.66;54.15;95529.13;4207289;28;20142;-70
2023/10/07 00:18:22;;;;;;;8.43;4.20;;;;;;;15.68;54.11;95524.50;4198210;28;20052;-70
2023/10/07 00:20:27;;;;;;;16.15;4.65;;;;;;;15.70;53.95;95518.09;4203915;28;20051;-71
2023/10/07 00:22:40;;;;;;;9.90;4.70;;;;;;;15.70;53.95;95518.09;4223700;28;20051;-70
2023/10/07 00:24:48;;;;;;;10.07;4.25;;;;;;;15.69;53.71;95512.97;4208636;28;20561;-71
2023/10/07 00:26:52;;;;;;;9.55;4.63;;;;;;;15.69;54.01;95507.69;4197499;28;20048;-70
2023/10/07 00:28:59;;;;;;;7.47;4.53;;;;;;;15.66;54.11;95510.66;4205229;28;20059;-72
2023/10/07 00:31:03;;;;;;;7.18;3.85;;;;;;;15.61;54.22;95502.41;4208194;28;20112;-69
2023/10/07 00:33:09;;;;;;;9.55;4.10;;;;;;;15.60;54.22;95500.78;4232055;28;20052;-68
2023/10/07 00:35:12;;;;;;;7.82;4.20;;;;;;;15.61;54.24;95497.97;4226136;28;20096;-69
2023/10/07 00:37:15;;;;;;;9.05;4.20;;;;;;;15.65;54.25;95501.09;4227905;28;20467;-72
2023/10/07 00:39:20;;;;;;;;;;;;;;;15.63;53.95;95497.78;4226803;28;20047;-71
2023/10/07 00:41:26;;;;;;;7.53;4.28;;;;;;;15.57;54.26;95496.66;4227126;28;19988;-71
2023/10/07 00:43:30;;;;;;;8.63;4.30;;;;;;;15.52;54.53;95499.00;4222039;28;20048;-70
2023/10/07 00:45:34;;;;;;;11.38;4.63;;;;;;;15.50;54.54;95490.41;4207920;28;20143;-68
2023/10/07 00:47:36;;;;;;;8.45;4.32;;;;;;;15.49;54.63;95489.59;4227673;28;20514;-69
2023/10/07 00:49:50;;;;;;;8.60;4.40;;;;;;;15.51;54.41;95484.16;4207677;28;20445;-70
2023/10/07 00:51:53;;;;;;;;;;;;;;;15.46;54.65;95489.91;4209337;28;20060;-69
2023/10/07 00:54:08;;;;;;;9.63;4.65;;;;;;;15.42;54.90;95480.69;4225003;28;19978;-72
2023/10/07 00:56:15;;;;;;;9.02;4.53;;;;;;;15.34;54.95;95481.53;4203861;28;20106;-70
2023/10/07 00:58:26;;;;;;;9.55;5.57;;;;;;;15.10;55.31;95478.94;4189446;28;20044;-71
2023/10/07 01:02:30;;;;;;;10.70;4.60;;;;;;;14.99;56.08;95474.84;4209479;28;20048;-69
2023/10/07 01:04:42;;;;;;;6.43;4.43;;;;;;;15.02;55.80;95477.16;4224035;28;20157;-70
2023/10/07 01:06:45;;;;;;;10.55;4.25;;;;;;;15.01;55.91;95474.69;4226314;28;20759;-70
2023/10/07 01:08:50;;;;;;;9.10;4.32;;;;;;;14.98;56.35;95472.38;4227621;28;20471;-70
2023/10/07 01:11:06;;;;;;;5.50;3.97;;;;;;;14.94;56.05;95474.53;4195397;28;20086;-69
2023/10/07 01:13:28;;;;;;;7.60;4.28;;;;;;;14.90;56.35;95476.66;4193378;28;20279;-71
2023/10/07 01:15:34;;;;;;;11.32;4.30;;;;;;;14.95;56.26;95470.91;4210511;28;20051;-70
2023/10/07 01:17:40;;;;;;;7.47;3.95;;;;;;;15.00;55.84;95473.06;4215163;28;20057;-72
2023/10/07 01:19:51;;;;;;;9.15;4.57;;;;;;;15.03;55.79;95470.88;4227191;28;20062;-71
2023/10/07 01:21:55;;;;;;;8.38;4.00;;;;;;;15.04;55.71;95477.81;4193215;28;20100;-71
2023/10/07 01:23:58;;;;;;;11.93;4.40;;;;;;;15.03;55.75;95478.78;4224584;28;20059;-71
2023/10/07 01:26:02;;;;;;;6.93;4.47;;;;;;;15.03;55.75;95468.25;4219463;28;20057;-70
2023/10/07 01:28:07;;;;;;;12.07;4.93;;;;;;;15.05;55.72;95474.19;4208892;28;20052;-71
2023/10/07 01:30:16;;;;;;;9.38;4.85;;;;;;;15.05;55.97;95478.63;4215865;28;20060;-73
2023/10/07 01:32:20;;;;;;;7.90;4.53;;;;;;;14.96;56.16;95477.81;4226377;28;20368;-71
2023/10/07 01:34:24;;;;;;;;;;;;;;;14.81;56.27;95482.94;4192829;28;20092;-70
2023/10/07 01:36:27;;;;;;;9.52;5.13;;;;;;;14.74;56.48;95481.97;4225102;28;19935;-70
2023/10/07 01:38:32;;;;;;;8.15;4.75;;;;;;;14.70;56.74;95478.84;4224419;28;20051;-71
2023/10/07 01:42:46;;;;;;;8.45;4.50;;;;;;;14.62;57.01;95485.91;4195284;28;20124;-70
2023/10/07 01:44:54;;;;;;;7.72;4.53;;;;;;;14.40;57.41;95480.28;4215133;28;20087;-71
2023/10/07 01:46:57;;;;;;;7.40;4.43;;;;;;;14.01;58.33;95487.97;4191085;28;20048;-71
2023/10/07 01:49:01;;;;;;;10.00;4.53;;;;;;;13.71;59.14;95485.72;4204537;28;20566;-70
2023/10/07 01:51:07;;;;;;;10.95;4.97;;;;;;;13.54;59.76;95484.00;4217092;28;20056;-70
2023/10/07 01:53:11;;;;;;;8.18;4.57;;;;;;;13.48;60.20;95482.81;4224693;28;20554;-70
2023/10/07 01:55:15;;;;;;;8.73;4.60;;;;;;;13.54;60.18;95485.81;4191120;28;20060;-69
2023/10/07 01:57:19;;;;;;;9.07;5.00;;;;;;;13.60;60.16;95475.47;4207037;28;20567;-69
2023/10/07 01:59:22;;;;;;;13.85;5.43;;;;;;;13.69;60.03;95479.78;4222669;28;20083;-70
2023/10/07 02:01:28;;;;;;;12.98;4.90;;;;;;;13.73;60.06;95475.84;4208306;28;20135;-71
2023/10/07 02:03:30;;;;;;;7.10;5.05;;;;;;;13.64;59.84;95471.53;4204779;28;20051;-71
2023/10/07 02:05:40;;;;;;;11.75;6.18;;;;;;;13.22;60.87;95474.09;4224397;28;20048;-71
2023/10/07 02:07:43;;;;;;;15.65;6.43;;;;;;;12.98;62.08;95470.34;4191742;28;20200;-70
2023/10/07 02:09:48;;;;;;;7.30;5.20;;;;;;;13.07;62.71;95469.41;4218131;28;20100;-71
2023/10/07 02:11:56;;;;;;;12.68;5.72;;;;;;;13.28;61.73;95465.59;4190953;28;20151;-70
2023/10/07 02:13:58;;;;;;;11.45;5.00;;;;;;;13.39;61.10;95464.53;4226149;28;20099;-70
2023/10/07 02:16:05;;;;;;;9.18;5.47;;;;;;;13.47;61.32;95472.47;4190982;28;20063;-70
2023/10/07 02:18:17;;;;;;;8.90;5.53;;;;;;;13.38;61.15;95463.72;4226184;28;20135;-70
2023/10/07 02:20:38;;;;;;;9.77;5.38;;;;;;;13.41;61.46;95465.19;4207326;28;20067;-71
2023/10/07 02:22:44;;;;;;;11.63;5.78;;;;;;;13.56;61.04;95454.91;4217308;28;20083;-70
2023/10/07 02:24:59;;;;;;;9.10;5.80;;;;;;;13.68;60.33;95457.09;4224593;28;20082;-69
2023/10/07 02:27:18;;;;;;;11.50;5.72;;;;;;;13.74;60.27;95460.88;4223945;28;20094;-70
2023/10/07 02:29:21;;;;;;;10.48;5.75;;;;;;;13.83;60.29;95454.66;4193496;28;20066;-70
2023/10/07 02:31:25;;;;;;;8.48;5.38;;;;;;;13.93;59.85;95459.78;4208365;28;20066;-69
2023/10/07 02:33:29;;;;;;;9.45;5.13;;;;;;;14.00;59.68;95462.59;4222479;28;20062;-70
2023/10/07 02:35:31;;;;;;;10.60;5.80;;;;;;;14.04;59.42;95459.47;4215549;28;20488;-70
2023/10/07 02:37:38;;;;;;;15.65;6.38;;;;;;;14.06;59.57;95464.56;4208495;28;20080;-70
2023/10/07 02:39:47;;;;;;;10.48;5.97;;;;;;;14.03;59.17;95464.91;4223832;28;20434;-71
2023/10/07 02:41:56;;;;;;;12.13;5.85;;;;;;;13.98;59.22;95464.56;4230702;28;20115;-69
2023/10/07 02:44:06;;;;;;;10.95;5.90;;;;;;;13.94;59.60;95456.16;4210696;28;20465;-69
2023/10/07 02:46:08;;;;;;;11.25;6.15;;;;;;;13.97;59.44;95461.09;4208505;28;20602;-69
2023/10/07 02:48:12;;;;;;;13.50;6.45;;;;;;;14.05;58.98;95460.31;4207024;28;20474;-69
2023/10/07 02:50:16;;;;;;;11.27;6.43;;;;;;;14.07;59.26;95453.06;4190731;28;20207;-71
2023/10/07 02:52:19;;;;;;;10.77;5.97;;;;;;;14.07;58.21;95453.06;4199415;28;20510;-69
2023/10/07 02:54:21;;;;;;;8.52;5.47;;;;;;;14.02;58.74;95457.97;4225546;28;20055;-69
2023/10/07 02:56:24;;;;;;;11.15;5.88;;;;;;;13.79;58.79;95463.03;4184135;28;20243;-69
2023/10/07 02:58:49;;;;;;;7.88;5.30;;;;;;;13.73;59.12;95464.50;4223314;28;20124;-70
2023/10/07 03:00:51;;;;;;;8.93;5.70;;;;;;;13.66;59.38;95458.22;4221726;28;20116;-70
2023/10/07 03:03:10;;;;;;;8.57;5.28;;;;;;;13.50;59.26;95465.06;4223508;28;20078;-69
2023/10/07 03:05:14;;;;;;;8.00;5.47;;;;;;;13.39;59.93;95473.25;4220025;28;20063;-72
2023/10/07 03:07:16;;;;;;;12.33;5.70;;;;;;;13.27;60.49;95471.81;4207204;28;20218;-70
2023/10/07 03:09:21;;;;;;;9.52;5.38;;;;;;;13.08;60.96;95473.72;4206023;28;20313;-71
2023/10/07 03:11:23;;;;;;;10.98;5.32;;;;;;;12.89;61.44;95466.84;4219665;28;20090;-71
2023/10/07 03:13:26;;;;;;;9.65;5.78;;;;;;;12.97;61.77;95466.09;4206554;28;20056;-69
2023/10/07 03:16:09;;;;;;;10.73;6.50;;;;;;;13.06;61.74;95469.59;4199340;28;20117;-70
2023/10/07 03:17:52;;;;;;;15.55;11.07;;;;;;;13.22;61.72;95476.75;4227419;28;20082;-68
2023/10/07 03:19:58;;;;;;;30.70;22.17;;;;;;;13.35;60.85;95471.91;4227903;28;20499;-71
2023/10/07 03:22:10;;;;;;;16.38;10.63;;;;;;;13.39;60.29;95475.88;4228263;28;20073;-71
2023/10/07 03:24:13;;;;;;;13.13;7.72;;;;;;;13.48;60.58;95474.09;4212363;28;20531;-70
2023/10/07 03:26:22;;;;;;;15.98;6.13;;;;;;;13.51;59.73;95479.06;4227526;28;20113;-68
2023/10/07 03:28:34;;;;;;;8.98;5.88;;;;;;;13.07;60.82;95479.94;4210486;28;20044;-70
2023/10/07 03:30:36;;;;;;;11.60;5.93;;;;;;;12.38;62.54;95478.13;4209123;28;20131;-71
2023/10/07 03:32:58;;;;;;;13.02;6.60;;;;;;;11.89;64.06;95488.97;4227913;28;20047;-72
2023/10/07 03:35:01;;;;;;;11.77;6.47;;;;;;;11.63;65.48;95479.13;4225316;28;20505;-73
2023/10/07 03:41:21;;;;;;;8.63;6.15;;;;;;;12.22;64.13;95474.38;4210439;28;20052;-71
2023/10/07 03:43:26;;;;;;;9.88;6.20;;;;;;;12.48;63.13;95468.34;4228556;28;20047;-71
2023/10/07 03:45:29;;;;;;;10.35;6.18;;;;;;;12.67;62.43;95470.00;4211503;28;20052;-72
2023/10/07 03:47:32;;;;;;;12.98;6.68;;;;;;;12.81;62.05;95471.22;4203947;28;20044;-67
2023/10/07 03:49:37;;;;;;;18.60;7.10;;;;;;;12.92;61.52;95465.72;4228396;28;20043;-70
2023/10/07 03:51:39;;;;;;;11.70;6.10;;;;;;;13.00;60.91;95465.75;4223888;28;20157;-69
2023/10/07 03:53:47;;;;;;;9.90;6.20;;;;;;;13.03;61.02;95468.06;4205123;28;20134;-68
2023/10/07 03:55:51;;;;;;;14.55;6.63;;;;;;;13.00;61.29;95463.13;4227834;28;20267;-71
2023/10/07 03:57:55;;;;;;;12.05;7.68;;;;;;;13.01;61.07;95470.03;4227868;28;20493;-72
2023/10/07 03:59:58;;;;;;;12.67;6.87;;;;;;;12.83;61.17;95471.91;4209924;28;20044;-71
2023/10/07 04:02:00;;;;;;;13.95;7.28;;;;;;;12.76;61.84;95478.75;4210504;28;20739;-69
2023/10/07 04:04:06;;;;;;;11.30;7.50;;;;;;;12.47;62.36;95479.84;4211318;28;20062;-68
2023/10/07 04:06:09;;;;;;;18.75;8.40;;;;;;;12.13;63.54;95480.53;4192428;28;20041;-72
2023/10/07 04:08:11;;;;;;;19.50;8.13;;;;;;;11.99;64.24;95488.91;4215600;28;20054;-72
2023/10/07 04:12:22;;;;;;;12.48;7.45;;;;;;;12.25;64.02;95489.00;4224091;28;20567;-71
2023/10/07 04:14:27;;;;;;;13.90;7.97;;;;;;;12.40;63.28;95489.31;4227939;28;20487;-72
2023/10/07 04:16:33;;;;;;;17.40;7.50;;;;;;;12.56;62.58;95491.25;4221612;28;20047;-70
2023/10/07 04:18:35;;;;;;;12.23;7.55;;;;;;;12.67;62.01;95493.66;4228817;28;20457;-70
2023/10/07 04:21:12;;;;;;;11.85;7.32;;;;;;;12.76;61.67;95487.47;4209948;28;20083;-70
2023/10/07 04:23:05;;;;;;;11.35;6.93;;;;;;;12.86;61.34;95487.34;4223808;28;20075;-72
2023/10/07 04:25:13;;;;;;;13.88;7.50;;;;;;;12.80;61.30;95478.31;4193460;28;20233;-72
2023/10/07 04:27:21;;;;;;;13.50;7.18;;;;;;;12.80;61.36;95480.06;4208092;28;20522;-74
2023/10/07 04:29:24;;;;;;;15.80;7.57;;;;;;;12.80;61.86;95477.44;4209640;28;20075;-71
2023/10/07 04:31:34;;;;;;;12.00;7.50;;;;;;;12.86;61.26;95474.22;4193581;28;20052;-69
2023/10/07 04:33:41;;;;;;;11.30;7.63;;;;;;;12.66;61.01;95482.28;4222818;28;20508;-71
2023/10/07 04:35:49;;;;;;;19.25;8.40;;;;;;;12.38;61.78;95468.44;4205692;28;20136;-71
2023/10/07 04:38:08;;;;;;;16.73;8.63;;;;;;;12.19;62.56;95479.91;4209959;28;20504;-72
2023/10/07 04:42:21;;;;;;;19.48;8.27;;;;;;;11.04;66.13;95483.78;4217028;28;20500;-70
2023/10/07 04:45:00;;;;;;;14.73;8.50;;;;;;;10.92;67.32;95478.88;4209822;28;20048;-72
2023/10/07 04:46:55;;;;;;;22.33;8.70;;;;;;;10.81;66.95;95472.81;4212973;28;20512;-70
2023/10/07 04:49:12;;;;;;;14.20;8.10;;;;;;;10.75;67.67;95477.78;4218346;28;20052;-72
2023/10/07 04:51:23;;;;;;;10.35;7.90;;;;;;;11.00;67.21;95479.81;4202861;28;20153;-71
2023/10/07 04:53:26;;;;;;;21.45;8.18;;;;;;;11.30;66.61;95480.53;4229822;28;20058;-71
2023/10/07 04:55:30;;;;;;;15.85;8.77;;;;;;;11.46;65.87;95475.50;4215093;28;20048;-72
2023/10/07 04:57:56;;;;;;;15.35;7.93;;;;;;;11.67;65.25;95475.25;4187285;28;20386;-71
2023/10/07 04:59:59;;;;;;;17.05;8.13;;;;;;;11.91;64.67;95480.94;4222179;28;20043;-71
2023/10/07 05:02:10;;;;;;;19.38;7.78;;;;;;;12.07;64.29;95489.81;4228345;28;20047;-71
2023/10/07 05:04:15;;;;;;;12.85;7.25;;;;;;;12.19;63.85;95484.34;4227977;28;20130;-71
2023/10/07 05:06:18;;;;;;;11.90;7.70;;;;;;;12.31;63.20;95487.59;4190305;28;20139;-70
2023/10/07 05:08:22;;;;;;;15.77;7.55;;;;;;;12.42;62.65;95476.84;4206360;28;20044;-71
2023/10/07 05:10:28;;;;;;;15.30;7.35;;;;;;;12.56;62.45;95481.56;4192182;28;20056;-72
2023/10/07 05:12:30;;;;;;;15.27;7.85;;;;;;;12.75;62.23;95490.25;4215709;28;20108;-73
2023/10/07 05:14:36;;;;;;;15.73;7.53;;;;;;;12.93;61.75;95496.31;4210328;28;20561;-71
2023/10/07 05:16:38;;;;;;;19.15;8.25;;;;;;;13.07;60.86;95495.72;4216208;28;20090;-73
2023/10/07 05:18:41;;;;;;;15.88;7.78;;;;;;;13.20;60.97;95494.50;4225045;28;20043;-72
2023/10/07 05:20:46;;;;;;;10.45;6.47;;;;;;;13.30;60.33;95497.88;4198436;28;20531;-72
2023/10/07 05:22:49;;;;;;;12.88;7.35;;;;;;;13.37;60.16;95501.53;4209857;28;20557;-72
2023/10/07 05:24:56;;;;;;;15.50;7.80;;;;;;;13.44;59.93;95497.31;4223772;28;20047;-71
2023/10/07 05:27:02;;;;;;;20.85;7.82;;;;;;;13.43;59.60;95500.91;4227211;28;20109;-71
2023/10/07 05:29:07;;;;;;;14.27;7.70;;;;;;;13.47;59.87;95504.88;4208879;28;20059;-71
2023/10/07 05:31:09;;;;;;;14.93;7.30;;;;;;;13.55;59.18;95508.50;4224357;28;20052;-73
2023/10/07 05:33:11;;;;;;;16.83;8.32;;;;;;;13.67;59.51;95507.25;4207851;28;20511;-72
2023/10/07 05:35:18;;;;;;;12.70;7.65;;;;;;;13.73;59.30;95502.19;4208612;28;20519;-73
2023/10/07 05:37:24;;;;;;;15.13;7.82;;;;;;;13.79;59.05;95510.41;4227849;28;20084;-71
2023/10/07 05:39:27;;;;;;;17.33;7.38;;;;;;;13.88;59.72;95505.03;4226918;28;20067;-71
2023/10/07 05:41:29;;;;;;;12.10;7.13;;;;;;;14.07;59.07;95503.13;4226958;28;20491;-72
2023/10/07 05:43:32;;;;;;;12.65;7.10;;;;;;;14.16;58.31;95512.69;4227023;28;20048;-72
2023/10/07 05:45:35;;;;;;;14.15;7.18;;;;;;;14.21;58.30;95510.38;4192215;28;20524;-73
2023/10/07 05:47:37;;;;;;;13.77;7.13;;;;;;;14.22;58.05;95527.88;4192111;28;20472;-73
2023/10/07 05:49:41;;;;;;;16.50;7.63;;;;;;;14.31;57.92;95518.97;4217859;28;20077;-71
2023/10/07 05:51:44;;;;;;;15.18;7.97;;;;;;;14.39;57.86;95522.59;4227309;28;20426;-71
2023/10/07 05:53:51;;;;;;;17.08;6.88;;;;;;;14.42;57.21;95523.13;4208900;28;20067;-70
2023/10/07 05:55:53;;;;;;;13.90;7.75;;;;;;;14.45;57.04;95527.22;4224698;28;20059;-71
2023/10/07 05:57:55;;;;;;;14.32;7.60;;;;;;;14.41;56.71;95525.91;4225380;28;20063;-70
2023/10/07 05:59:58;;;;;;;16.17;7.50;;;;;;;14.21;57.17;95530.66;4225578;28;20139;-71
2023/10/07 06:02:05;;;;;;;;;;;;;;;14.17;57.82;95534.59;4228864;28;20047;-71
2023/10/07 06:04:09;;;;;;;15.40;8.88;;;;;;;14.24;57.45;95535.59;4228072;28;20391;-74
2023/10/07 06:06:13;;;;;;;15.68;7.80;;;;;;;14.34;57.21;95531.81;4225152;28;20052;-73
2023/10/07 06:08:18;;;;;;;12.95;7.53;;;;;;;14.46;56.91;95529.72;4225797;28;20044;-72
2023/10/07 06:10:24;;;;;;;15.32;7.53;;;;;;;14.61;56.96;95521.22;4226437;28;20055;-73
2023/10/07 06:12:28;;;;;;;14.80;8.25;;;;;;;14.69;56.03;95529.94;4223423;28;20056;-71
2023/10/07 06:14:29;;;;;;;;;;;;;;;14.61;56.32;95527.28;4201714;28;20059;-71
2023/10/07 06:16:33;;;;;;;12.18;7.43;;;;;;;14.58;56.10;95522.34;4226989;28;20389;-72
2023/10/07 06:18:36;;;;;;;12.15;7.95;;;;;;;14.50;55.89;95523.13;4225911;28;20055;-71
2023/10/07 06:20:37;;;;;;;12.30;7.25;;;;;;;14.57;56.28;95518.06;4208437;28;20455;-71
2023/10/07 06:22:45;;;;;;;10.52;6.72;;;;;;;14.55;56.03;95514.75;4210812;28;20154;-72
2023/10/07 06:24:52;;;;;;;10.10;6.72;;;;;;;14.38;56.87;95518.34;4221618;28;20652;-72
2023/10/07 06:26:54;;;;;;;13.73;7.22;;;;;;;14.32;56.75;95525.88;4223745;28;20055;-73
2023/10/07 06:28:57;;;;;;;13.20;7.93;;;;;;;14.47;57.14;95530.53;4222826;28;20081;-71
2023/10/07 06:31:10;;;;;;;14.63;6.90;;;;;;;14.64;56.84;95529.59;4225921;28;20328;-73
2023/10/07 06:33:13;;;;;;;14.85;7.88;;;;;;;14.44;56.55;95526.41;4223390;28;20044;-72
2023/10/07 06:35:21;;;;;;;17.33;8.20;;;;;;;14.22;57.32;95535.78;4204024;28;20055;-71
2023/10/07 06:37:29;;;;;;;13.00;7.10;;;;;;;14.50;57.24;95527.59;4219752;28;20499;-73
2023/10/07 06:39:32;;;;;;;15.75;7.28;;;;;;;14.80;56.57;95530.59;4224950;28;20127;-73
2023/10/07 06:41:35;;;;;;;10.50;6.90;;;;;;;15.05;55.58;95529.59;4226707;28;20051;-73
2023/10/07 06:43:42;;;;;;;14.23;6.90;;;;;;;15.28;55.26;95531.56;4207538;28;20060;-72
2023/10/07 06:45:45;;;;;;;11.02;7.07;;;;;;;15.46;54.98;95532.16;4226208;28;20056;-72
2023/10/07 06:47:47;;;;;;;13.18;7.43;;;;;;;15.60;54.38;95538.59;4208921;28;20056;-71
2023/10/07 06:49:52;;;;;;;19.40;7.80;;;;;;;15.77;53.93;95534.91;4208337;28;20148;-73
2023/10/07 06:51:54;;;;;;;25.15;10.77;;;;;;;15.89;54.29;95537.19;4224790;28;20052;-73
2023/10/07 06:54:03;;;;;;;16.20;8.48;;;;;;;15.97;53.54;95537.97;4210038;28;20131;-70
2023/10/07 06:56:05;;;;;;;23.73;9.93;;;;;;;16.10;53.69;95531.31;4214606;28;20502;-74
2023/10/07 06:58:09;;;;;;;17.77;8.00;;;;;;;15.68;53.15;95538.56;4172483;28;20500;-73
2023/10/07 07:00:22;;;;;;;13.52;8.77;;;;;;;15.72;54.20;95533.78;4207592;28;20047;-72
2023/10/07 07:02:34;;;;;;;13.40;8.02;;;;;;;15.70;53.90;95528.66;4214834;28;20120;-72
2023/10/07 07:04:38;;;;;;;12.55;8.32;;;;;;;15.75;54.11;95533.44;4215052;28;20116;-72
2023/10/07 07:06:46;;;;;;;17.75;11.65;;;;;;;15.81;54.23;95530.13;4220704;28;20055;-72
2023/10/07 07:08:50;;;;;;;20.70;9.50;;;;;;;15.83;53.85;95528.16;4208979;28;20104;-72
2023/10/07 07:10:55;;;;;;;13.68;7.57;;;;;;;15.43;54.28;95521.13;4203147;28;20333;-75
2023/10/07 07:13:35;;;;;;;13.68;7.68;;;;;;;15.34;54.89;95523.78;4219794;28;20131;-75
2023/10/07 07:15:36;;;;;;;21.02;10.57;;;;;;;15.57;55.18;95515.13;4193258;28;20055;-72
2023/10/07 07:17:43;;;;;;;15.70;8.18;;;;;;;15.57;54.34;95518.63;4209775;28;20487;-72
2023/10/07 07:19:46;;;;;;;11.13;7.82;;;;;;;15.81;54.43;95518.72;4224616;28;20443;-73
2023/10/07 07:21:48;;;;;;;15.82;8.55;;;;;;;16.02;54.03;95512.84;4225246;28;20051;-72
2023/10/07 07:23:51;;;;;;;12.25;8.27;;;;;;;16.25;53.50;95513.72;4202618;28;20499;-73
2023/10/07 07:28:06;;;;;;;18.05;8.02;;;;;;;16.56;52.52;95519.00;4224743;28;20051;-73
2023/10/07 07:30:17;;;;;;;14.95;8.57;;;;;;;16.72;52.34;95522.50;4222292;28;20079;-73
2023/10/07 07:32:19;;;;;;;9.93;7.50;;;;;;;16.91;51.69;95519.41;4213145;28;20133;-73
2023/10/07 07:34:26;;;;;;;13.68;7.45;;;;;;;16.97;51.25;95518.72;4211299;28;20058;-74
2023/10/07 07:36:38;;;;;;;13.45;7.53;;;;;;;17.09;51.15;95510.31;4214491;28;20174;-72
2023/10/07 07:38:46;;;;;;;13.27;7.68;;;;;;;17.05;51.19;95515.16;4226519;28;20124;-75
2023/10/07 07:40:50;;;;;;;15.95;7.68;;;;;;;17.06;51.30;95514.16;4226479;28;20556;-72
2023/10/07 07:42:56;;;;;;;13.73;7.60;;;;;;;17.11;50.79;95510.97;4225238;28;20048;-72
2023/10/07 07:45:01;;;;;;;13.77;8.85;;;;;;;16.33;51.68;95518.16;4224225;28;20048;-72
2023/10/07 07:47:06;;;;;;;18.30;8.95;;;;;;;15.87;53.06;95512.75;4208328;28;20063;-73
2023/10/07 07:49:10;;;;;;;14.73;8.32;;;;;;;15.73;53.58;95519.59;4216382;28;20193;-72
2023/10/07 07:51:16;;;;;;;14.77;9.27;;;;;;;15.81;53.66;95511.63;4225582;28;20120;-73
2023/10/07 07:53:20;;;;;;;16.17;8.93;;;;;;;16.07;53.15;95502.59;4207811;28;20127;-72
2023/10/07 07:55:23;;;;;;;16.45;8.85;;;;;;;16.03;53.10;95501.31;4207366;28;20363;-71
2023/10/07 07:57:27;;;;;;;13.02;8.77;;;;;;;16.16;52.96;95501.56;4224518;28;20060;-72
2023/10/07 07:59:33;;;;;;;13.30;9.15;;;;;;;16.19;52.58;95501.19;4227651;28;20112;-73
2023/10/07 08:01:38;;;;;;;17.80;9.00;;;;;;;16.11;53.05;95499.44;4194679;28;20568;-71
2023/10/07 08:03:44;;;;;;;22.83;10.38;;;;;;;16.29;53.02;95496.50;4212239;28;20059;-72
2023/10/07 08:05:47;;;;;;;21.20;8.98;;;;;;;16.52;52.40;95500.97;4219959;28;20139;-73
2023/10/07 08:07:51;;;;;;;19.08;10.02;;;;;;;16.51;52.07;95504.63;4228806;28;20052;-72
2023/10/07 08:09:57;;;;;;;22.42;9.70;;;;;;;16.61;51.90;95505.22;4217180;28;20092;-73
2023/10/07 08:12:00;;;;;;;15.68;9.00;;;;;;;16.44;52.12;95493.94;4229092;28;20058;-73
2023/10/07 08:14:10;;;;;;;14.75;8.90;;;;;;;16.67;52.26;95493.94;4227343;28;20051;-72
2023/10/07 08:16:20;;;;;;;18.80;10.13;;;;;;;16.56;51.79;95499.63;4229304;28;20055;-73
2023/10/07 08:18:28;;;;;;;17.80;10.07;;;;;;;16.49;51.97;95504.00;4194983;28;20052;-72
2023/10/07 08:20:37;;;;;;;17.75;10.18;;;;;;;16.54;51.90;95501.63;4211082;28;20110;-74
2023/10/07 08:22:46;;;;;;;19.02;10.18;;;;;;;16.42;52.33;95503.88;4207435;28;20088;-73
2023/10/07 08:24:49;;;;;;;16.95;9.98;;;;;;;16.44;52.39;95499.22;4220723;28;20047;-72
2023/10/07 08:26:59;;;;;;;;;;;;;;;16.63;52.03;95497.94;4211775;28;20066;-73
2023/10/07 08:29:01;;;;;;;25.80;10.52;;;;;;;16.55;51.76;95490.06;4219755;28;19927;-74
2023/10/07 08:31:13;;;;;;;17.33;10.30;;;;;;;16.62;51.70;95496.28;4214665;28;20055;-74
2023/10/07 08:33:22;;;;;;;22.20;10.93;;;;;;;16.62;52.12;95485.69;4223987;28;20101;-73
2023/10/07 08:35:26;;;;;;;18.85;10.73;;;;;;;16.56;51.93;95489.06;4206723;28;20048;-70
2023/10/07 08:37:32;;;;;;;19.00;10.90;;;;;;;16.93;52.77;95479.53;4227060;28;20130;-73
2023/10/07 08:39:44;;;;;;;20.65;10.35;;;;;;;17.33;51.09;95477.50;4211323;28;20048;-73
2023/10/07 08:41:52;;;;;;;27.17;10.38;;;;;;;17.78;50.40;95479.13;4210490;28;20145;-74
2023/10/07 08:44:15;;;;;;;23.38;11.45;;;;;;;18.18;49.76;95466.38;4220119;28;20525;-72
2023/10/07 08:46:19;;;;;;;12.70;8.82;;;;;;;18.53;48.69;95463.06;4224862;28;20573;-74
2023/10/07 08:48:26;;;;;;;24.27;11.77;;;;;;;18.78;48.11;95467.00;4198540;28;20106;-73
2023/10/07 08:50:29;;;;;;;16.95;9.52;;;;;;;19.02;47.41;95456.97;4221803;28;20040;-72
2023/10/07 08:52:31;;;;;;;15.47;9.87;;;;;;;19.23;46.84;95462.22;4229143;28;20059;-73
2023/10/07 08:54:38;;;;;;;18.75;9.82;;;;;;;19.41;46.09;95467.03;4209814;28;20311;-73
2023/10/07 08:56:41;;;;;;;16.33;10.80;;;;;;;19.18;45.58;95461.16;4228269;28;20575;-74
2023/10/07 08:58:44;;;;;;;18.77;10.93;;;;;;;18.92;45.88;95461.78;4225987;28;20065;-72
2023/10/07 09:00:47;;;;;;;15.27;10.13;;;;;;;18.73;46.65;95458.72;4209815;28;20474;-72
2023/10/07 09:02:52;;;;;;;19.00;9.65;;;;;;;18.82;46.40;95452.31;4210300;28;20066;-71
2023/10/07 09:04:57;;;;;;;20.48;10.35;;;;;;;19.03;46.06;95451.44;4210401;28;20134;-74
2023/10/07 09:07:08;;;;;;;19.20;10.00;;;;;;;18.77;46.12;95448.56;4224218;28;20528;-74
2023/10/07 09:09:11;;;;;;;17.95;9.82;;;;;;;18.94;45.80;95449.94;4203968;28;20143;-74
2023/10/07 09:11:18;;;;;;;17.48;10.07;;;;;;;18.65;46.24;95448.28;4210598;28;20123;-73
2023/10/07 09:13:31;;;;;;;16.77;9.40;;;;;;;18.20;47.28;95442.31;4222345;28;20047;-74
2023/10/07 09:15:36;;;;;;;17.02;9.52;;;;;;;18.34;46.75;95446.75;4226446;28;20043;-72
2023/10/07 09:17:42;;;;;;;16.42;9.25;;;;;;;18.55;46.30;95445.91;4226243;28;20056;-72
2023/10/07 09:19:47;;;;;;;15.95;8.82;;;;;;;18.68;45.90;95445.22;4206234;28;20085;-72
2023/10/07 09:21:56;;;;;;;12.80;8.02;;;;;;;18.85;44.71;95447.66;4207997;28;20141;-72
2023/10/07 09:24:00;;;;;;;12.02;8.23;;;;;;;18.88;45.21;95445.41;4209821;28;20060;-74
2023/10/07 09:26:22;;;;;;;19.70;8.50;;;;;;;18.68;45.21;95445.22;4185573;28;20247;-73
2023/10/07 09:28:35;;;;;;;12.00;8.40;;;;;;;18.52;45.66;95448.97;4210804;28;20139;-74
2023/10/07 09:32:46;;;;;;;12.98;7.88;;;;;;;17.49;47.29;95450.03;4226166;28;20082;-74
2023/10/07 09:34:55;;;;;;;16.05;8.00;;;;;;;17.55;48.18;95444.81;4214345;28;20056;-74
2023/10/07 09:36:58;;;;;;;16.33;9.02;;;;;;;17.78;47.90;95444.66;4192979;28;20084;-73
2023/10/07 09:39:33;;;;;;;18.17;8.05;;;;;;;18.34;47.33;95441.44;4209727;28;20052;-73
2023/10/07 09:41:39;;;;;;;15.48;8.85;;;;;;;18.84;45.59;95438.84;4217451;28;20055;-74
2023/10/07 09:43:49;;;;;;;15.52;8.43;;;;;;;18.83;45.40;95437.22;4210532;28;20106;-73
2023/10/07 09:45:52;;;;;;;14.45;7.85;;;;;;;18.91;45.30;95436.25;4210709;28;20507;-74
2023/10/07 09:48:00;;;;;;;14.30;7.68;;;;;;;18.86;45.30;95441.31;4192863;28;20064;-72
2023/10/07 09:50:10;;;;;;;15.27;7.30;;;;;;;19.16;43.91;95437.44;4210106;28;20040;-72
2023/10/07 09:52:28;;;;;;;11.82;6.88;;;;;;;19.27;43.42;95438.72;4211101;28;20076;-75
2023/10/07 09:54:55;;;;;;;11.93;6.55;;;;;;;19.20;44.51;95424.59;4186501;28;20520;-73
2023/10/07 09:57:29;;;;;;;18.83;7.47;;;;;;;19.36;43.84;95426.13;4175578;28;20140;-72
2023/10/07 09:59:56;;;;;;;13.10;6.90;;;;;;;19.84;43.46;95416.38;4209433;28;20083;-73
2023/10/07 10:02:25;;;;;;;11.55;7.30;;;;;;;19.82;42.67;95409.63;4210808;28;20056;-75
2023/10/07 10:05:00;;;;;;;13.90;6.85;;;;;;;19.61;43.25;95413.97;4210443;28;20055;-72
2023/10/07 10:07:26;;;;;;;20.92;7.38;;;;;;;19.24;43.57;95407.25;4178920;28;20060;-73
2023/10/07 10:09:42;;;;;;;13.70;6.90;;;;;;;19.55;43.44;95398.00;4200142;28;20508;-73